Time;durP1;ratioP1;P1;durP2;ratioP2;P2;SDS_P1;SDS_P2;PMS_P1;PMS_P2;Temp;Humidity;BMP_temperature;BMP_pressure;BME280_temperature;BME280_humidity;BME280_pressure;Samples;Min_cycle;Max_cycle;Signal;HPM_P1;HPM_P2
2020/12/04 00:02:03;;;;;;;17.40;15.70;;;3.10;99.90;;;;;;5022445;28;20456;-80
2020/12/04 00:04:29;;;;;;;18.43;16.53;;;3.10;99.90;;;;;;5052647;28;20447;-80
2020/12/04 00:06:56;;;;;;;18.50;16.57;;;3.20;99.90;;;;;;5033639;28;20507;-80
2020/12/04 00:09:22;;;;;;;17.10;15.30;;;3.20;99.90;;;;;;5034078;28;20522;-81
2020/12/04 00:11:49;;;;;;;16.60;14.97;;;3.20;99.90;;;;;;5037928;28;20488;-81
2020/12/04 00:14:15;;;;;;;17.03;15.43;;;3.20;99.90;;;;;;5038856;28;20444;-81
2020/12/04 00:16:41;;;;;;;15.63;14.13;;;3.30;99.90;;;;;;5022194;28;20445;-82
2020/12/04 00:19:07;;;;;;;17.20;15.60;;;3.30;99.90;;;;;;5046075;28;20514;-80
2020/12/04 00:21:34;;;;;;;16.03;14.63;;;3.30;99.90;;;;;;5025250;28;20437;-81
2020/12/04 00:24:01;;;;;;;16.40;14.80;;;3.20;99.90;;;;;;5049579;28;20749;-81
2020/12/04 00:26:27;;;;;;;16.10;14.50;;;3.20;99.90;;;;;;5023673;28;20434;-80
2020/12/04 00:28:53;;;;;;;16.93;15.20;;;3.20;99.90;;;;;;5034130;28;20456;-81
2020/12/04 00:31:20;;;;;;;17.90;16.20;;;3.20;99.90;;;;;;5027175;28;20502;-80
2020/12/04 00:33:46;;;;;;;17.30;15.67;;;3.20;99.90;;;;;;5027342;28;20448;-80
2020/12/04 00:36:12;;;;;;;16.47;14.77;;;3.20;99.90;;;;;;5034075;28;20478;-80
2020/12/04 00:38:39;;;;;;;17.33;15.53;;;3.30;99.90;;;;;;5034289;28;20477;-82
2020/12/04 00:41:06;;;;;;;17.13;15.47;;;3.30;99.90;;;;;;5035069;28;20469;-80
2020/12/04 00:43:32;;;;;;;18.10;16.20;;;3.30;99.90;;;;;;5033079;28;20504;-81
2020/12/04 00:45:58;;;;;;;16.87;15.27;;;3.30;99.90;;;;;;5030979;28;20498;-81
2020/12/04 00:48:25;;;;;;;17.00;15.40;;;3.40;99.90;;;;;;5027358;28;20458;-81
2020/12/04 00:50:51;;;;;;;20.67;16.63;;;3.30;99.90;;;;;;5028862;28;20843;-81
2020/12/04 00:53:18;;;;;;;17.47;15.80;;;3.40;99.90;;;;;;5014216;28;20452;-80
2020/12/04 00:55:45;;;;;;;15.50;14.00;;;3.40;99.90;;;;;;5014302;28;20513;-80
2020/12/04 00:58:13;;;;;;;15.97;14.47;;;3.40;99.90;;;;;;5028138;28;20439;-80
2020/12/04 01:00:41;;;;;;;16.30;14.73;;;3.40;99.90;;;;;;5031810;28;20851;-80
2020/12/04 01:03:07;;;;;;;16.53;14.90;;;3.40;99.90;;;;;;5014250;28;20474;-80
2020/12/04 01:05:34;;;;;;;16.43;14.87;;;3.30;99.90;;;;;;5040562;28;20433;-80
2020/12/04 01:08:00;;;;;;;17.60;14.53;;;3.40;99.90;;;;;;5050805;28;20438;-80
2020/12/04 01:10:26;;;;;;;15.87;14.43;;;3.40;99.90;;;;;;5017633;28;21095;-80
2020/12/04 01:12:52;;;;;;;16.63;15.00;;;3.40;99.90;;;;;;5030793;28;20447;-80
2020/12/04 01:15:20;;;;;;;16.23;14.70;;;3.40;99.90;;;;;;5045909;28;21068;-80
2020/12/04 01:17:46;;;;;;;15.93;14.43;;;3.40;99.90;;;;;;5034986;28;20442;-80
2020/12/04 01:20:12;;;;;;;15.80;14.30;;;3.40;99.90;;;;;;5055231;28;20508;-80
2020/12/04 01:22:38;;;;;;;15.13;13.73;;;3.40;99.90;;;;;;5037653;28;20448;-81
2020/12/04 01:25:05;;;;;;;15.53;14.13;;;3.40;99.90;;;;;;5055495;28;21019;-80
2020/12/04 01:27:31;;;;;;;14.83;13.50;;;3.40;99.90;;;;;;5038213;28;20435;-80
2020/12/04 01:29:57;;;;;;;15.67;14.20;;;3.40;99.90;;;;;;5035587;28;20462;-80
2020/12/04 01:32:24;;;;;;;15.17;13.57;;;3.40;99.90;;;;;;5018164;28;20486;-82
2020/12/04 01:34:50;;;;;;;15.40;14.00;;;3.40;99.90;;;;;;5025472;28;20508;-80
2020/12/04 01:37:17;;;;;;;15.87;14.37;;;3.50;99.90;;;;;;5037184;28;20451;-81
2020/12/04 01:39:43;;;;;;;16.00;14.53;;;3.50;99.90;;;;;;5048903;28;20487;-80
2020/12/04 01:42:09;;;;;;;15.20;13.80;;;3.50;99.90;;;;;;5036203;28;21102;-80
2020/12/04 01:44:36;;;;;;;15.53;13.97;;;3.50;99.90;;;;;;5053598;28;20449;-81
2020/12/04 01:47:02;;;;;;;15.43;14.10;;;3.50;99.90;;;;;;5037855;28;20533;-81
2020/12/04 01:49:29;;;;;;;14.90;13.43;;;3.50;99.90;;;;;;5039226;28;21149;-80
2020/12/04 01:51:56;;;;;;;14.87;13.50;;;3.50;99.90;;;;;;5044133;28;20441;-81
2020/12/04 01:54:23;;;;;;;15.23;13.80;;;3.50;99.90;;;;;;5055215;28;20492;-81
2020/12/04 01:56:49;;;;;;;15.47;13.97;;;3.50;99.90;;;;;;5048505;28;20438;-80
2020/12/04 01:59:16;;;;;;;14.87;13.57;;;3.60;99.90;;;;;;5030177;28;20461;-80
2020/12/04 02:01:44;;;;;;;15.63;14.17;;;3.60;99.90;;;;;;5037599;28;20512;-81
2020/12/04 02:04:12;;;;;;;15.83;14.27;;;3.60;99.90;;;;;;5037866;28;20450;-80
2020/12/04 02:06:47;;;;;;;14.13;12.93;;;3.60;99.90;;;;;;5026346;28;20507;-80
2020/12/04 02:12:04;;;;;;;14.57;13.27;;;3.70;99.90;;;;;;4974535;28;20504;-79
2020/12/04 02:14:32;;;;;;;15.30;13.90;;;3.70;99.90;;;;;;4969795;28;20456;-79
2020/12/04 02:17:02;;;;;;;15.47;13.90;;;3.70;99.90;;;;;;4940209;29;20828;-79
2020/12/04 02:19:28;;;;;;;13.53;12.27;;;3.70;99.90;;;;;;4955648;29;20440;-80
2020/12/04 02:21:56;;;;;;;14.83;13.47;;;3.80;99.90;;;;;;4920413;29;21041;-79
2020/12/04 02:24:26;;;;;;;14.23;12.83;;;3.80;99.90;;;;;;4920009;29;20456;-79
2020/12/04 02:26:53;;;;;;;14.37;13.13;;;3.70;99.90;;;;;;4941770;28;20788;-79
2020/12/04 02:29:19;;;;;;;14.43;13.03;;;3.70;99.90;;;;;;4937758;29;20450;-79
2020/12/04 02:31:45;;;;;;;15.80;14.40;;;3.70;99.90;;;;;;4940252;29;20471;-79
2020/12/04 02:34:12;;;;;;;14.80;13.50;;;3.70;99.90;;;;;;4939255;29;20447;-79
2020/12/04 02:36:38;;;;;;;14.70;13.40;;;3.70;99.90;;;;;;4938673;29;20897;-79
2020/12/04 02:39:05;;;;;;;14.03;12.83;;;3.60;99.90;;;;;;4938786;28;20693;-79
2020/12/04 02:41:32;;;;;;;14.93;13.57;;;3.60;99.90;;;;;;4936733;29;20976;-79
2020/12/04 02:43:59;;;;;;;13.67;12.47;;;3.60;99.90;;;;;;4919965;29;20454;-80
2020/12/04 02:46:25;;;;;;;14.53;13.17;;;3.60;99.90;;;;;;4937312;29;20432;-79
2020/12/04 02:48:52;;;;;;;14.20;12.90;;;3.60;99.90;;;;;;4936190;29;20424;-79
2020/12/04 02:51:18;;;;;;;14.13;12.83;;;3.60;99.90;;;;;;4936533;29;20461;-79
2020/12/04 02:53:44;;;;;;;14.13;12.83;;;3.70;99.90;;;;;;4919831;29;20692;-79
2020/12/04 02:56:16;;;;;;;14.53;13.27;;;3.70;99.90;;;;;;4939145;28;20613;-79
2020/12/04 02:58:43;;;;;;;14.60;13.27;;;3.80;99.90;;;;;;4956644;28;20475;-80
2020/12/04 03:01:09;;;;;;;15.73;14.40;;;3.80;99.90;;;;;;4949709;28;20473;-80
2020/12/04 03:03:35;;;;;;;14.80;13.43;;;3.80;99.90;;;;;;4955317;29;20486;-79
2020/12/04 03:06:01;;;;;;;15.37;13.97;;;3.80;99.90;;;;;;4938486;29;20476;-79
2020/12/04 03:08:28;;;;;;;15.03;13.73;;;3.80;99.90;;;;;;4938480;29;20444;-79
2020/12/04 03:10:55;;;;;;;15.10;13.80;;;3.80;99.90;;;;;;4937681;29;20492;-79
2020/12/04 03:13:23;;;;;;;16.23;14.73;;;3.80;99.90;;;;;;4923692;29;20447;-79
2020/12/04 03:15:49;;;;;;;16.73;15.13;;;3.80;99.90;;;;;;4936270;29;20541;-80
2020/12/04 03:18:15;;;;;;;15.87;14.33;;;3.80;99.90;;;;;;4935877;28;20508;-79
2020/12/04 03:20:42;;;;;;;14.93;13.63;;;3.80;99.90;;;;;;4936358;29;20487;-79
2020/12/04 03:23:08;;;;;;;15.00;13.60;;;3.80;99.90;;;;;;4936062;29;20490;-78
2020/12/04 03:25:34;;;;;;;14.67;13.30;;;3.80;99.90;;;;;;4918737;29;20443;-79
2020/12/04 03:28:00;;;;;;;15.07;13.80;;;3.80;99.90;;;;;;4919293;29;20969;-79
2020/12/04 03:30:28;;;;;;;14.23;13.03;;;3.80;99.90;;;;;;4934739;28;20892;-77
2020/12/04 03:32:54;;;;;;;14.70;13.30;;;3.80;99.90;;;;;;4934853;29;20431;-79
2020/12/04 03:35:20;;;;;;;14.50;13.23;;;3.80;99.90;;;;;;4934635;29;20473;-79
2020/12/04 03:37:46;;;;;;;14.40;13.10;;;3.80;99.90;;;;;;4935088;29;20530;-78
2020/12/04 03:40:13;;;;;;;13.87;12.67;;;3.80;99.90;;;;;;4917163;29;20490;-78
2020/12/04 03:42:39;;;;;;;14.10;13.00;;;3.90;99.90;;;;;;4937811;29;20502;-79
2020/12/04 03:45:05;;;;;;;14.13;12.83;;;3.90;99.90;;;;;;4936246;29;20613;-79
2020/12/04 03:47:32;;;;;;;15.03;13.67;;;3.90;99.90;;;;;;4937459;29;21037;-78
2020/12/04 03:49:59;;;;;;;15.47;13.97;;;3.90;99.90;;;;;;4934045;29;20536;-79
2020/12/04 03:52:25;;;;;;;14.37;13.17;;;3.90;99.90;;;;;;4932523;29;20482;-78
2020/12/04 03:54:52;;;;;;;14.93;13.63;;;3.90;99.90;;;;;;4917109;29;20479;-79
2020/12/04 03:57:18;;;;;;;14.23;13.03;;;3.90;99.90;;;;;;4934897;29;20445;-79
2020/12/04 03:59:44;;;;;;;14.97;13.60;;;4.00;99.90;;;;;;4916554;29;20558;-78
2020/12/04 04:02:10;;;;;;;15.60;14.10;;;4.10;99.90;;;;;;4951494;28;20437;-77
2020/12/04 04:04:37;;;;;;;14.57;13.17;;;4.10;99.90;;;;;;4936353;28;20452;-79
2020/12/04 04:07:04;;;;;;;13.87;12.67;;;4.20;99.90;;;;;;4938353;29;20450;-78
2020/12/04 04:09:30;;;;;;;13.93;12.73;;;4.30;99.90;;;;;;4917302;29;20457;-78
2020/12/04 04:11:56;;;;;;;13.50;12.20;;;4.20;99.90;;;;;;4916712;29;20972;-78
2020/12/04 04:14:23;;;;;;;13.47;12.37;;;4.20;99.90;;;;;;4917752;29;20445;-77
2020/12/04 04:16:49;;;;;;;13.13;11.87;;;4.20;99.90;;;;;;4916585;29;20481;-77
2020/12/04 04:19:15;;;;;;;14.10;12.90;;;4.20;99.90;;;;;;4915776;29;20439;-77
2020/12/04 04:21:42;;;;;;;13.33;12.17;;;4.20;99.90;;;;;;4927814;29;20524;-78
2020/12/04 04:24:09;;;;;;;14.40;13.03;;;4.20;99.90;;;;;;4935998;29;20500;-79
2020/12/04 04:26:35;;;;;;;13.57;12.27;;;4.20;99.90;;;;;;4953202;28;20501;-78
2020/12/04 04:29:01;;;;;;;13.60;12.30;;;4.10;99.90;;;;;;4952004;28;20434;-78
2020/12/04 04:31:28;;;;;;;14.67;13.37;;;4.10;99.90;;;;;;4939623;29;20470;-79
2020/12/04 04:33:54;;;;;;;12.93;11.93;;;4.00;99.90;;;;;;4940980;29;20501;-78
2020/12/04 04:36:20;;;;;;;14.00;12.90;;;4.00;99.90;;;;;;4938176;28;20936;-79
2020/12/04 04:38:47;;;;;;;14.80;13.50;;;3.90;99.90;;;;;;4920383;29;20463;-78
2020/12/04 04:41:14;;;;;;;15.60;14.10;;;3.90;99.90;;;;;;4921166;29;20495;-79
2020/12/04 04:43:40;;;;;;;15.13;13.67;;;3.80;99.90;;;;;;4921732;29;20446;-78
2020/12/04 04:46:17;;;;;;;15.47;14.07;;;3.70;99.90;;;;;;4935837;29;20438;-77
2020/12/04 04:48:48;;;;;;;15.37;14.07;;;3.70;99.90;;;;;;4942047;29;20935;-77
2020/12/04 04:51:15;;;;;;;15.13;13.73;;;3.60;99.90;;;;;;4916633;29;20850;-77
2020/12/04 04:53:44;;;;;;;14.80;13.43;;;3.50;99.90;;;;;;4919428;29;20871;-77
2020/12/04 04:56:11;;;;;;;15.90;14.40;;;3.50;99.90;;;;;;4939146;29;20476;-78
2020/12/04 04:58:37;;;;;;;15.23;13.93;;;3.40;99.90;;;;;;4958916;28;20434;-78
2020/12/04 05:01:03;;;;;;;15.83;14.40;;;3.40;99.90;;;;;;4959799;28;20462;-78
2020/12/04 05:03:30;;;;;;;14.73;13.50;;;3.30;99.90;;;;;;4942171;29;20505;-77
2020/12/04 05:05:56;;;;;;;14.73;13.43;;;3.30;99.90;;;;;;4959158;28;20433;-78
2020/12/04 05:08:24;;;;;;;15.63;14.23;;;3.40;99.90;;;;;;4941241;29;20508;-77
2020/12/04 05:10:50;;;;;;;15.37;14.07;;;3.30;99.90;;;;;;4940409;29;20480;-78
2020/12/04 05:13:20;;;;;;;15.77;14.37;;;3.20;99.90;;;;;;4958828;29;21024;-77
2020/12/04 05:15:47;;;;;;;16.03;14.43;;;3.20;99.90;;;;;;4940624;28;20542;-78
2020/12/04 05:18:15;;;;;;;15.67;14.00;;;3.20;99.90;;;;;;4944382;29;20440;-77
2020/12/04 05:20:43;;;;;;;15.27;13.90;;;3.30;99.90;;;;;;4964019;28;20478;-77
2020/12/04 05:23:10;;;;;;;14.87;13.53;;;3.30;99.90;;;;;;4972044;28;20435;-78
2020/12/04 05:25:38;;;;;;;14.63;13.33;;;3.20;99.90;;;;;;4950821;29;20522;-77
2020/12/04 05:28:12;;;;;;;15.30;13.87;;;3.30;99.90;;;;;;4965708;28;20438;-78
2020/12/04 05:30:40;;;;;;;16.07;14.60;;;3.30;99.90;;;;;;4946335;29;20484;-77
2020/12/04 05:33:08;;;;;;;15.43;14.00;;;3.20;99.90;;;;;;4938688;28;20461;-76
2020/12/04 05:35:36;;;;;;;16.23;14.63;;;3.20;99.90;;;;;;4937821;29;20909;-77
2020/12/04 05:38:13;;;;;;;15.10;13.70;;;3.20;99.90;;;;;;4938577;29;20501;-77
2020/12/04 05:40:42;;;;;;;15.77;14.47;;;3.20;99.90;;;;;;4925924;28;20561;-77
2020/12/04 05:43:09;;;;;;;16.00;14.47;;;3.20;99.90;;;;;;4937877;29;20450;-77
2020/12/04 05:45:36;;;;;;;16.43;14.73;;;3.10;99.90;;;;;;4938802;29;20476;-77
2020/12/04 05:48:12;;;;;;;15.53;14.03;;;3.10;99.90;;;;;;4927873;29;20457;-77
2020/12/04 05:50:40;;;;;;;15.60;14.13;;;3.10;99.90;;;;;;4939580;28;20465;-77
2020/12/04 05:53:07;;;;;;;16.07;14.57;;;3.10;99.90;;;;;;4926390;29;20518;-77
2020/12/04 05:55:35;;;;;;;16.17;14.67;;;3.00;99.90;;;;;;4931705;29;20487;-78
2020/12/04 05:58:02;;;;;;;15.77;14.43;;;3.00;99.90;;;;;;4928938;29;20454;-77
2020/12/04 06:00:28;;;;;;;16.70;15.10;;;3.10;99.90;;;;;;4935763;28;20470;-78
2020/12/04 06:02:58;;;;;;;16.87;15.27;;;3.10;99.90;;;;;;4937003;28;20471;-77
2020/12/04 06:05:26;;;;;;;16.03;14.57;;;3.10;99.90;;;;;;4918212;28;20952;-77
2020/12/04 06:07:59;;;;;;;15.97;14.47;;;3.00;99.90;;;;;;4930740;29;20976;-77
2020/12/04 06:10:26;;;;;;;14.67;13.37;;;3.00;99.90;;;;;;4948679;28;20481;-77
2020/12/04 06:12:53;;;;;;;14.73;13.50;;;3.10;99.90;;;;;;4954376;28;20555;-77
2020/12/04 06:15:20;;;;;;;14.83;13.50;;;3.10;99.90;;;;;;4954587;28;20545;-77
2020/12/04 06:17:47;;;;;;;16.00;14.40;;;3.10;99.90;;;;;;4937185;29;20496;-77
2020/12/04 06:20:17;;;;;;;15.87;14.57;;;3.10;99.90;;;;;;4954138;28;20464;-77
2020/12/04 06:23:06;;;;;;;16.30;14.67;;;3.00;99.90;;;;;;4937227;29;20447;-77
2020/12/04 06:26:05;;;;;;;15.17;13.77;;;3.10;99.90;;;;;;4934034;29;20497;-77
2020/12/04 06:28:33;;;;;;;15.80;14.33;;;3.10;99.90;;;;;;4875796;29;20451;-77
2020/12/04 06:31:10;;;;;;;14.87;13.53;;;3.00;99.90;;;;;;4938323;28;20474;-77
2020/12/04 06:33:42;;;;;;;15.23;13.83;;;3.00;99.90;;;;;;4936878;29;20458;-76
2020/12/04 06:36:10;;;;;;;16.03;14.43;;;3.00;99.90;;;;;;4937046;28;20474;-77
2020/12/04 06:38:54;;;;;;;15.70;14.13;;;3.00;99.90;;;;;;4954190;28;20475;-77
2020/12/04 06:41:34;;;;;;;15.63;14.03;;;3.00;99.90;;;;;;4938019;29;20623;-79
2020/12/04 06:44:02;;;;;;;15.37;13.87;;;3.00;99.90;;;;;;4957529;28;20459;-79
2020/12/04 06:46:37;;;;;;;14.90;13.53;;;3.00;99.90;;;;;;4940097;29;20548;-78
2020/12/04 06:49:37;;;;;;;14.50;13.10;;;3.00;99.90;;;;;;4921038;29;20864;-78
2020/12/04 06:52:06;;;;;;;15.20;13.70;;;2.90;99.90;;;;;;4921929;28;20549;-79
2020/12/04 06:54:34;;;;;;;15.70;14.33;;;3.00;99.90;;;;;;4937996;29;20573;-77
2020/12/04 06:57:01;;;;;;;15.13;13.83;;;3.00;99.90;;;;;;4937646;28;20487;-78
2020/12/04 06:59:29;;;;;;;15.13;13.70;;;2.90;99.90;;;;;;4954457;28;21003;-77
2020/12/04 07:02:01;;;;;;;15.77;14.27;;;3.00;99.90;;;;;;4952662;28;20448;-77
2020/12/04 07:04:29;;;;;;;16.83;15.13;;;3.00;99.90;;;;;;4934226;29;20483;-77
2020/12/04 07:07:07;;;;;;;16.07;14.57;;;3.00;99.90;;;;;;4946627;28;20453;-77
2020/12/04 07:09:35;;;;;;;17.53;15.87;;;3.00;99.90;;;;;;4936783;29;20450;-78
2020/12/04 07:12:02;;;;;;;16.23;14.73;;;3.00;99.90;;;;;;4937351;29;20462;-77
2020/12/04 07:14:29;;;;;;;16.97;15.37;;;3.00;99.90;;;;;;4936126;29;20500;-77
2020/12/04 07:16:56;;;;;;;16.33;14.80;;;3.00;99.90;;;;;;4921915;29;21020;-80
2020/12/04 07:19:23;;;;;;;16.93;15.33;;;3.00;99.90;;;;;;4948952;28;20444;-77
2020/12/04 07:21:49;;;;;;;16.67;15.07;;;3.10;99.90;;;;;;4938722;29;20448;-77
2020/12/04 07:24:16;;;;;;;16.30;14.70;;;3.00;99.90;;;;;;4957354;28;20457;-78
2020/12/04 07:26:50;;;;;;;16.57;15.07;;;3.00;99.90;;;;;;4938892;29;20454;-77
2020/12/04 07:29:16;;;;;;;17.30;15.57;;;3.10;99.90;;;;;;4956263;28;20443;-78
2020/12/04 07:31:46;;;;;;;16.37;14.83;;;3.10;99.90;;;;;;4938919;29;20483;-77
2020/12/04 07:34:13;;;;;;;17.43;15.73;;;3.10;99.90;;;;;;4939273;29;20474;-78
2020/12/04 07:36:48;;;;;;;18.00;16.17;;;3.10;99.90;;;;;;4938642;29;20478;-77
2020/12/04 07:39:25;;;;;;;15.30;14.00;;;3.10;99.90;;;;;;4938765;29;20888;-77
2020/12/04 07:41:54;;;;;;;15.80;14.30;;;3.10;99.90;;;;;;4937511;29;20453;-77
2020/12/04 07:44:30;;;;;;;18.53;16.73;;;3.10;99.90;;;;;;4923487;29;20498;-77
2020/12/04 07:47:05;;;;;;;17.10;15.50;;;3.10;99.90;;;;;;4937129;29;20452;-77
2020/12/04 07:49:32;;;;;;;17.10;15.43;;;3.20;99.90;;;;;;4936152;29;20531;-77
2020/12/04 07:52:21;;;;;;;15.57;14.17;;;3.30;99.90;;;;;;4935517;29;20515;-77
2020/12/04 07:54:49;;;;;;;15.93;14.53;;;3.30;99.90;;;;;;4941137;28;20510;-77
2020/12/04 07:57:24;;;;;;;15.63;14.23;;;3.40;99.90;;;;;;4953749;28;20941;-78
2020/12/04 07:59:52;;;;;;;16.80;15.13;;;3.40;99.90;;;;;;4953702;28;20457;-77
2020/12/04 08:02:23;;;;;;;15.97;14.47;;;3.50;99.90;;;;;;4936497;29;20445;-77
2020/12/04 08:04:49;;;;;;;16.23;14.63;;;3.50;99.90;;;;;;4953825;28;20439;-77
2020/12/04 08:07:15;;;;;;;17.00;15.30;;;3.50;99.90;;;;;;4936298;29;20450;-77
2020/12/04 08:12:28;;;;;;;17.47;15.67;;;3.50;99.90;;;;;;4985401;28;20451;-77
2020/12/04 08:14:55;;;;;;;20.93;18.20;;;3.50;99.90;;;;;;5005131;28;20442;-76
2020/12/04 08:17:23;;;;;;;18.23;16.43;;;3.40;99.90;;;;;;4997745;28;20780;-77
2020/12/04 08:19:50;;;;;;;17.13;15.53;;;3.40;99.90;;;;;;4990628;28;20439;-76
2020/12/04 08:22:25;;;;;;;17.53;15.97;;;3.40;99.90;;;;;;4991341;28;20441;-76
2020/12/04 08:25:02;;;;;;;18.17;16.10;;;3.40;99.90;;;;;;5006526;28;20504;-77
2020/12/04 08:27:30;;;;;;;17.13;15.37;;;3.40;99.90;;;;;;4990812;28;20541;-76
2020/12/04 08:30:07;;;;;;;17.10;15.37;;;3.50;99.90;;;;;;4993549;28;20455;-77
2020/12/04 08:32:33;;;;;;;18.47;16.73;;;3.50;99.90;;;;;;4995706;28;20444;-77
2020/12/04 08:35:12;;;;;;;18.20;15.90;;;3.50;99.90;;;;;;4994247;28;20979;-77
2020/12/04 08:37:38;;;;;;;18.30;16.40;;;3.50;99.90;;;;;;4995674;28;20491;-77
2020/12/04 08:40:05;;;;;;;17.33;15.60;;;3.60;99.90;;;;;;4994367;28;20436;-76
2020/12/04 08:42:33;;;;;;;17.53;15.93;;;3.70;99.90;;;;;;4995512;28;20428;-77
2020/12/04 08:45:05;;;;;;;16.80;15.20;;;3.90;99.90;;;;;;4994049;28;20495;-77
2020/12/04 08:47:37;;;;;;;18.07;16.23;;;4.00;99.90;;;;;;4994187;28;20440;-77
2020/12/04 08:50:09;;;;;;;19.03;17.13;;;4.00;99.90;;;;;;4993433;28;20517;-76
2020/12/04 08:52:54;;;;;;;17.63;15.87;;;4.00;99.90;;;;;;4993671;28;20440;-77
2020/12/04 08:55:21;;;;;;;17.73;16.03;;;4.20;99.90;;;;;;4995038;28;20422;-77
2020/12/04 08:57:50;;;;;;;19.23;17.17;;;4.30;99.90;;;;;;4993784;28;20448;-77
2020/12/04 09:00:18;;;;;;;18.13;16.33;;;4.30;99.90;;;;;;4994169;28;20464;-77
2020/12/04 09:02:45;;;;;;;18.77;16.87;;;4.30;99.90;;;;;;4994688;28;20463;-77
2020/12/04 09:05:14;;;;;;;16.83;15.27;;;4.40;99.90;;;;;;4993455;28;20451;-76
2020/12/04 09:07:41;;;;;;;18.20;16.43;;;4.40;99.90;;;;;;4993806;28;20453;-78
2020/12/04 09:10:09;;;;;;;16.80;15.30;;;4.50;99.90;;;;;;4993914;28;20438;-77
2020/12/04 09:12:36;;;;;;;16.17;14.67;;;4.50;99.90;;;;;;4993599;28;20448;-77
2020/12/04 09:15:03;;;;;;;17.53;15.80;;;4.60;99.90;;;;;;4993504;28;20463;-76
2020/12/04 09:17:30;;;;;;;16.60;14.93;;;4.70;99.90;;;;;;4999552;28;20279;-77
2020/12/04 09:19:56;;;;;;;17.37;15.73;;;4.80;99.90;;;;;;4992508;28;20448;-78
2020/12/04 09:22:22;;;;;;;16.83;15.23;;;4.80;99.90;;;;;;4993606;28;20506;-77
2020/12/04 09:24:49;;;;;;;16.87;15.33;;;4.90;99.90;;;;;;4994841;28;20432;-77
2020/12/04 09:27:16;;;;;;;19.73;17.83;;;4.90;99.90;;;;;;4994745;28;20460;-77
2020/12/04 09:29:42;;;;;;;18.53;16.83;;;4.80;99.90;;;;;;4992792;28;20205;-77
2020/12/04 09:32:12;;;;;;;18.13;16.33;;;4.90;99.90;;;;;;4994581;28;20519;-76
2020/12/04 09:34:39;;;;;;;18.77;16.73;;;4.90;99.90;;;;;;4993597;28;20494;-76
2020/12/04 09:37:10;;;;;;;19.63;17.63;;;4.80;99.90;;;;;;4993248;28;20488;-76
2020/12/04 09:39:37;;;;;;;19.23;17.30;;;4.80;99.90;;;;;;4992328;28;20444;-77
2020/12/04 09:42:06;;;;;;;19.90;17.33;;;4.70;99.90;;;;;;4993001;28;20456;-77
2020/12/04 09:44:32;;;;;;;20.33;18.33;;;4.70;99.90;;;;;;4992814;28;20451;-77
2020/12/04 09:46:58;;;;;;;19.47;17.57;;;4.60;99.90;;;;;;4993171;28;20193;-77
2020/12/04 09:49:25;;;;;;;19.23;17.23;;;4.60;99.90;;;;;;4992282;28;20504;-76
2020/12/04 09:51:54;;;;;;;19.13;17.13;;;4.60;99.90;;;;;;4993777;28;20451;-76
2020/12/04 09:54:20;;;;;;;19.47;17.30;;;4.60;99.90;;;;;;4994131;28;20430;-77
2020/12/04 09:56:46;;;;;;;18.50;16.70;;;4.70;99.90;;;;;;4994006;28;20889;-78
2020/12/04 09:59:14;;;;;;;18.30;16.50;;;4.70;99.90;;;;;;4992112;28;20801;-77
2020/12/04 10:01:40;;;;;;;16.87;15.43;;;4.80;99.90;;;;;;4993882;28;20464;-77
2020/12/04 10:04:07;;;;;;;18.50;16.60;;;4.90;99.90;;;;;;4992882;28;20440;-77
2020/12/04 10:06:34;;;;;;;18.17;16.27;;;4.90;99.90;;;;;;4992258;28;20441;-76
2020/12/04 10:09:00;;;;;;;18.10;16.37;;;4.90;99.90;;;;;;4991812;28;20453;-77
2020/12/04 10:11:26;;;;;;;17.53;15.83;;;4.90;99.90;;;;;;4992343;28;20283;-77
2020/12/04 10:13:52;;;;;;;18.30;16.47;;;4.80;99.90;;;;;;4992321;28;20498;-77
2020/12/04 10:16:19;;;;;;;17.20;15.53;;;4.80;99.90;;;;;;4991816;28;20543;-77
2020/12/04 10:18:45;;;;;;;18.60;16.30;;;4.80;99.90;;;;;;4992986;28;20424;-77
2020/12/04 10:21:11;;;;;;;18.17;16.37;;;4.70;99.90;;;;;;4993347;28;20647;-77
2020/12/04 10:23:38;;;;;;;18.40;16.63;;;4.70;99.90;;;;;;4992186;28;20874;-77
2020/12/04 10:26:04;;;;;;;17.37;15.63;;;4.70;99.90;;;;;;4993473;28;20487;-77
2020/12/04 10:28:32;;;;;;;18.10;16.27;;;4.60;99.90;;;;;;4991230;28;20217;-77
2020/12/04 10:30:59;;;;;;;18.47;16.73;;;4.60;99.90;;;;;;4993133;28;20839;-77
2020/12/04 10:33:25;;;;;;;19.10;17.20;;;4.60;99.90;;;;;;5008478;28;20502;-77
2020/12/04 10:35:51;;;;;;;17.53;15.83;;;4.60;99.90;;;;;;5008103;28;20473;-77
2020/12/04 10:38:18;;;;;;;18.77;16.97;;;4.60;99.90;;;;;;4992562;28;20491;-77
2020/12/04 10:40:45;;;;;;;20.23;17.03;;;4.60;99.90;;;;;;5008853;28;20472;-77
2020/12/04 10:43:11;;;;;;;18.07;16.17;;;4.60;99.90;;;;;;5008295;28;20441;-77
2020/12/04 10:45:37;;;;;;;19.13;17.23;;;4.60;99.90;;;;;;4993209;28;20208;-76
2020/12/04 10:48:03;;;;;;;18.63;16.53;;;4.70;99.90;;;;;;4992856;28;20197;-77
2020/12/04 10:50:30;;;;;;;17.70;16.00;;;4.60;99.90;;;;;;5006826;28;20483;-77
2020/12/04 10:52:56;;;;;;;17.57;15.77;;;4.60;99.90;;;;;;4992921;28;20471;-76
2020/12/04 10:55:22;;;;;;;17.23;15.53;;;4.70;99.90;;;;;;5007569;28;20869;-76
2020/12/04 10:57:49;;;;;;;16.90;15.20;;;4.70;99.90;;;;;;4992903;28;20530;-76
2020/12/04 11:00:15;;;;;;;19.20;15.97;;;4.80;99.90;;;;;;4990865;28;20499;-76
2020/12/04 11:02:42;;;;;;;18.03;16.33;;;4.80;99.90;;;;;;4991665;28;20448;-76
2020/12/04 11:05:37;;;;;;;18.63;16.73;;;4.80;99.90;;;;;;4993397;28;20435;-76
2020/12/04 11:08:04;;;;;;;17.77;15.87;;;4.90;99.90;;;;;;4990376;28;20448;-76
2020/12/04 11:10:30;;;;;;;17.47;15.87;;;4.90;99.90;;;;;;4991561;28;20548;-77
2020/12/04 11:12:57;;;;;;;18.77;16.90;;;5.00;99.90;;;;;;4992844;28;20436;-77
2020/12/04 11:15:23;;;;;;;18.37;16.47;;;5.00;99.90;;;;;;4992598;28;20712;-77
2020/12/04 11:17:49;;;;;;;17.23;15.63;;;5.00;99.90;;;;;;4993304;28;20217;-77
2020/12/04 11:20:16;;;;;;;17.37;15.63;;;5.00;99.90;;;;;;4991650;28;20452;-77
2020/12/04 11:22:42;;;;;;;16.47;14.80;;;5.10;99.90;;;;;;4992790;28;20520;-77
2020/12/04 11:25:09;;;;;;;17.97;16.27;;;5.10;99.90;;;;;;4992716;28;20476;-77
2020/12/04 11:27:39;;;;;;;17.53;15.73;;;5.10;99.90;;;;;;4991397;28;20433;-77
2020/12/04 11:30:07;;;;;;;18.23;16.27;;;5.10;99.90;;;;;;4990699;28;20447;-76
2020/12/04 11:32:33;;;;;;;18.40;16.53;;;5.10;99.90;;;;;;4991017;28;20202;-77
2020/12/04 11:35:00;;;;;;;17.60;15.97;;;5.10;99.90;;;;;;4992397;28;20526;-77
2020/12/04 11:37:26;;;;;;;18.30;16.40;;;5.10;99.90;;;;;;4990974;28;20252;-77
2020/12/04 11:39:53;;;;;;;19.70;17.80;;;5.00;99.90;;;;;;4991710;28;20192;-77
2020/12/04 11:42:19;;;;;;;18.03;16.13;;;5.00;99.90;;;;;;4991757;28;20971;-75
2020/12/04 11:44:47;;;;;;;25.47;17.80;;;5.00;99.90;;;;;;4992064;28;20682;-77
2020/12/04 11:47:15;;;;;;;17.73;16.13;;;5.00;99.90;;;;;;4973143;28;20205;-76
2020/12/04 11:49:41;;;;;;;18.50;16.67;;;5.10;99.90;;;;;;4973293;28;20433;-76
2020/12/04 11:52:07;;;;;;;18.27;16.27;;;5.00;99.90;;;;;;4971671;28;20221;-76
2020/12/04 11:54:33;;;;;;;17.57;15.97;;;5.10;99.90;;;;;;4991764;28;20448;-78
2020/12/04 11:57:00;;;;;;;17.47;15.77;;;5.10;99.90;;;;;;4991829;28;20217;-77
2020/12/04 11:59:26;;;;;;;16.67;15.00;;;5.10;99.90;;;;;;4993104;28;20681;-77
2020/12/04 12:01:52;;;;;;;17.10;15.50;;;5.10;99.90;;;;;;4992342;28;20236;-77
2020/12/04 12:04:20;;;;;;;16.63;14.93;;;5.10;99.90;;;;;;4992983;28;20502;-77
2020/12/04 12:06:46;;;;;;;17.20;15.50;;;5.10;99.90;;;;;;4992076;28;20224;-77
2020/12/04 12:09:13;;;;;;;16.27;14.80;;;5.10;99.90;;;;;;4990000;28;20205;-77
2020/12/04 12:11:39;;;;;;;17.90;16.10;;;5.20;99.90;;;;;;4991620;28;20487;-77
2020/12/04 12:14:06;;;;;;;18.00;15.73;;;5.20;99.90;;;;;;4992155;28;20844;-77
2020/12/04 12:16:32;;;;;;;17.37;15.67;;;5.10;99.90;;;;;;4988346;28;20472;-77
2020/12/04 12:18:58;;;;;;;18.13;16.40;;;5.10;99.90;;;;;;4991119;28;20469;-77
2020/12/04 12:21:25;;;;;;;21.47;17.97;;;5.20;99.90;;;;;;4992273;28;20464;-77
2020/12/04 12:23:51;;;;;;;17.83;16.03;;;5.20;99.90;;;;;;4991388;28;20441;-77
2020/12/04 12:26:18;;;;;;;18.63;16.70;;;5.20;99.90;;;;;;4991321;28;20202;-77
2020/12/04 12:28:45;;;;;;;21.53;18.77;;;5.20;99.90;;;;;;4990689;28;20205;-77
2020/12/04 12:31:12;;;;;;;19.27;17.20;;;5.10;99.90;;;;;;4991420;28;20472;-77
2020/12/04 12:33:38;;;;;;;19.00;17.00;;;5.10;99.90;;;;;;4991491;28;20237;-78
2020/12/04 12:36:05;;;;;;;19.03;17.13;;;5.10;99.90;;;;;;4993121;28;20209;-78
2020/12/04 12:38:32;;;;;;;20.03;16.97;;;5.00;99.90;;;;;;4990499;28;20248;-77
2020/12/04 12:40:58;;;;;;;19.87;17.60;;;5.10;99.90;;;;;;4992889;28;20464;-76
2020/12/04 12:43:28;;;;;;;18.37;16.57;;;5.00;99.90;;;;;;5007799;28;20201;-77
2020/12/04 12:45:54;;;;;;;19.93;17.83;;;5.00;99.90;;;;;;4993275;28;20512;-78